sensor_id;sensor_type;location;lat;lon;timestamp;pressure;altitude;pressure_sealevel;temperature;humidity
12349;BME280;5974;42.710;27.258;2024-01-15T00:00:51;99751.25;;;-1.65;100.00
12349;BME280;5974;42.710;27.258;2024-01-15T00:03:19;99756.25;;;-2.04;100.00
12349;BME280;5974;42.710;27.258;2024-01-15T00:05:46;99759.81;;;-1.46;100.00
12349;BME280;5974;42.710;27.258;2024-01-15T00:08:13;99759.00;;;-1.33;100.00
12349;BME280;5974;42.710;27.258;2024-01-15T00:10:40;99752.09;;;-1.73;100.00
12349;BME280;5974;42.710;27.258;2024-01-15T00:13:07;99744.31;;;-1.96;100.00
12349;BME280;5974;42.710;27.258;2024-01-15T00:15:33;99746.16;;;-1.45;100.00
12349;BME280;5974;42.710;27.258;2024-01-15T00:18:00;99745.28;;;-1.50;100.00
12349;BME280;5974;42.710;27.258;2024-01-15T00:20:28;99748.72;;;-1.25;100.00
12349;BME280;5974;42.710;27.258;2024-01-15T00:22:55;99753.88;;;-1.21;100.00
12349;BME280;5974;42.710;27.258;2024-01-15T00:25:22;99754.34;;;-2.44;100.00
12349;BME280;5974;42.710;27.258;2024-01-15T00:27:49;99758.72;;;-2.17;100.00
12349;BME280;5974;42.710;27.258;2024-01-15T00:30:16;99757.81;;;-2.30;100.00
12349;BME280;5974;42.710;27.258;2024-01-15T00:32:42;99752.88;;;-1.92;100.00
12349;BME280;5974;42.710;27.258;2024-01-15T00:35:09;99744.31;;;-1.93;100.00
12349;BME280;5974;42.710;27.258;2024-01-15T00:37:37;99744.31;;;-1.96;100.00
12349;BME280;5974;42.710;27.258;2024-01-15T00:40:06;99750.16;;;-2.27;100.00
12349;BME280;5974;42.710;27.258;2024-01-15T00:42:33;99749.19;;;-2.46;100.00
12349;BME280;5974;42.710;27.258;2024-01-15T00:45:00;99753.63;;;-2.19;100.00
12349;BME280;5974;42.710;27.258;2024-01-15T00:47:27;99751.91;;;-2.17;100.00
12349;BME280;5974;42.710;27.258;2024-01-15T00:49:53;99756.06;;;-2.46;100.00
12349;BME280;5974;42.710;27.258;2024-01-15T00:52:20;99747.66;;;-3.42;100.00
12349;BME280;5974;42.710;27.258;2024-01-15T00:54:48;99757.19;;;-3.24;100.00
12349;BME280;5974;42.710;27.258;2024-01-15T00:57:15;99749.66;;;-3.95;100.00
12349;BME280;5974;42.710;27.258;2024-01-15T00:59:42;99744.34;;;-3.30;100.00
12349;BME280;5974;42.710;27.258;2024-01-15T01:02:08;99737.78;;;-2.99;100.00
12349;BME280;5974;42.710;27.258;2024-01-15T01:04:35;99751.19;;;-3.28;100.00
12349;BME280;5974;42.710;27.258;2024-01-15T01:07:02;99745.25;;;-3.22;100.00
12349;BME280;5974;42.710;27.258;2024-01-15T01:09:29;99746.75;;;-3.47;100.00
12349;BME280;5974;42.710;27.258;2024-01-15T01:11:57;99746.94;;;-3.27;100.00
12349;BME280;5974;42.710;27.258;2024-01-15T01:14:23;99744.44;;;-3.19;100.00
12349;BME280;5974;42.710;27.258;2024-01-15T01:16:50;99742.03;;;-3.00;100.00
12349;BME280;5974;42.710;27.258;2024-01-15T01:19:17;99742.09;;;-2.91;100.00
12349;BME280;5974;42.710;27.258;2024-01-15T01:21:44;99737.00;;;-2.91;100.00
12349;BME280;5974;42.710;27.258;2024-01-15T01:24:10;99736.44;;;-3.57;100.00
12349;BME280;5974;42.710;27.258;2024-01-15T01:26:37;99741.59;;;-3.54;100.00
12349;BME280;5974;42.710;27.258;2024-01-15T01:29:05;99736.63;;;-3.39;100.00
12349;BME280;5974;42.710;27.258;2024-01-15T01:31:32;99722.38;;;-3.11;100.00
12349;BME280;5974;42.710;27.258;2024-01-15T01:33:59;99723.25;;;-3.08;100.00
12349;BME280;5974;42.710;27.258;2024-01-15T01:36:25;99723.22;;;-3.11;100.00
12349;BME280;5974;42.710;27.258;2024-01-15T01:38:52;99723.97;;;-3.19;100.00
12349;BME280;5974;42.710;27.258;2024-01-15T01:41:19;99716.75;;;-4.44;100.00
12349;BME280;5974;42.710;27.258;2024-01-15T01:43:46;99725.63;;;-4.78;100.00
12349;BME280;5974;42.710;27.258;2024-01-15T01:46:14;99728.22;;;-4.73;100.00
12349;BME280;5974;42.710;27.258;2024-01-15T01:48:41;99721.22;;;-4.26;100.00
12349;BME280;5974;42.710;27.258;2024-01-15T01:51:08;99733.44;;;-3.97;100.00
12349;BME280;5974;42.710;27.258;2024-01-15T01:53:35;99732.53;;;-4.05;100.00
12349;BME280;5974;42.710;27.258;2024-01-15T01:56:04;99731.72;;;-4.01;100.00
12349;BME280;5974;42.710;27.258;2024-01-15T01:58:33;99737.91;;;-3.80;100.00
12349;BME280;5974;42.710;27.258;2024-01-15T02:01:00;99728.56;;;-3.77;100.00
12349;BME280;5974;42.710;27.258;2024-01-15T02:03:29;99737.94;;;-3.77;100.00
12349;BME280;5974;42.710;27.258;2024-01-15T02:05:56;99732.66;;;-4.62;100.00
12349;BME280;5974;42.710;27.258;2024-01-15T02:08:23;99739.28;;;-5.30;100.00
12349;BME280;5974;42.710;27.258;2024-01-15T02:10:50;99734.72;;;-4.97;100.00
12349;BME280;5974;42.710;27.258;2024-01-15T02:13:17;99731.16;;;-4.48;100.00
12349;BME280;5974;42.710;27.258;2024-01-15T02:15:44;99728.72;;;-4.40;100.00
12349;BME280;5974;42.710;27.258;2024-01-15T02:18:11;99733.41;;;-4.01;100.00
12349;BME280;5974;42.710;27.258;2024-01-15T02:20:39;99736.03;;;-3.94;100.00
12349;BME280;5974;42.710;27.258;2024-01-15T02:23:10;99728.00;;;-4.27;100.00
12349;BME280;5974;42.710;27.258;2024-01-15T02:25:37;99737.00;;;-4.56;100.00
12349;BME280;5974;42.710;27.258;2024-01-15T02:28:05;99728.34;;;-4.64;100.00
12349;BME280;5974;42.710;27.258;2024-01-15T02:30:33;99720.78;;;-4.58;100.00
12349;BME280;5974;42.710;27.258;2024-01-15T02:33:01;99713.53;;;-4.93;100.00
12349;BME280;5974;42.710;27.258;2024-01-15T02:35:27;99718.53;;;-4.37;100.00
12349;BME280;5974;42.710;27.258;2024-01-15T02:37:54;99712.69;;;-4.28;100.00
12349;BME280;5974;42.710;27.258;2024-01-15T02:40:22;99716.91;;;-4.30;100.00
12349;BME280;5974;42.710;27.258;2024-01-15T02:42:49;99716.97;;;-4.26;100.00
12349;BME280;5974;42.710;27.258;2024-01-15T02:45:16;99714.97;;;-4.48;100.00
12349;BME280;5974;42.710;27.258;2024-01-15T02:47:43;99716.72;;;-4.47;100.00
12349;BME280;5974;42.710;27.258;2024-01-15T02:50:10;99709.09;;;-4.44;100.00
12349;BME280;5974;42.710;27.258;2024-01-15T02:52:37;99710.09;;;-4.31;100.00
12349;BME280;5974;42.710;27.258;2024-01-15T02:55:04;99707.28;;;-4.53;100.00
12349;BME280;5974;42.710;27.258;2024-01-15T02:57:32;99704.66;;;-4.57;100.00
12349;BME280;5974;42.710;27.258;2024-01-15T02:59:59;99709.78;;;-4.57;100.00
12349;BME280;5974;42.710;27.258;2024-01-15T03:02:26;99708.31;;;-4.40;100.00
12349;BME280;5974;42.710;27.258;2024-01-15T03:04:52;99707.44;;;-4.39;100.00
12349;BME280;5974;42.710;27.258;2024-01-15T03:07:19;99715.25;;;-4.28;100.00
12349;BME280;5974;42.710;27.258;2024-01-15T03:09:46;99709.44;;;-4.14;100.00
12349;BME280;5974;42.710;27.258;2024-01-15T03:12:12;99702.56;;;-4.22;100.00
12349;BME280;5974;42.710;27.258;2024-01-15T03:14:41;99705.28;;;-4.06;100.00
12349;BME280;5974;42.710;27.258;2024-01-15T03:17:07;99704.31;;;-4.17;100.00
12349;BME280;5974;42.710;27.258;2024-01-15T03:19:35;99700.75;;;-4.31;100.00
12349;BME280;5974;42.710;27.258;2024-01-15T03:22:02;99696.50;;;-4.95;100.00
12349;BME280;5974;42.710;27.258;2024-01-15T03:24:29;99695.47;;;-4.46;100.00
12349;BME280;5974;42.710;27.258;2024-01-15T03:26:56;99706.75;;;-4.26;100.00
12349;BME280;5974;42.710;27.258;2024-01-15T03:29:25;99705.16;;;-4.19;100.00
12349;BME280;5974;42.710;27.258;2024-01-15T03:31:53;99703.47;;;-4.19;100.00
12349;BME280;5974;42.710;27.258;2024-01-15T03:34:20;99710.19;;;-4.24;100.00
12349;BME280;5974;42.710;27.258;2024-01-15T03:36:47;99709.50;;;-4.11;100.00
12349;BME280;5974;42.710;27.258;2024-01-15T03:39:14;99707.53;;;-4.34;100.00
12349;BME280;5974;42.710;27.258;2024-01-15T03:41:41;99703.94;;;-5.09;100.00
12349;BME280;5974;42.710;27.258;2024-01-15T03:44:08;99700.03;;;-4.87;100.00
12349;BME280;5974;42.710;27.258;2024-01-15T03:46:35;99705.13;;;-4.85;100.00
12349;BME280;5974;42.710;27.258;2024-01-15T03:49:03;99705.94;;;-4.89;100.00
12349;BME280;5974;42.710;27.258;2024-01-15T03:51:29;99701.63;;;-4.92;100.00
12349;BME280;5974;42.710;27.258;2024-01-15T03:53:56;99701.91;;;-4.74;100.00
12349;BME280;5974;42.710;27.258;2024-01-15T03:56:23;99699.19;;;-4.84;100.00
12349;BME280;5974;42.710;27.258;2024-01-15T03:58:49;99699.84;;;-4.98;100.00
12349;BME280;5974;42.710;27.258;2024-01-15T04:01:16;99693.94;;;-4.97;100.00
12349;BME280;5974;42.710;27.258;2024-01-15T04:03:43;99696.41;;;-5.03;100.00
12349;BME280;5974;42.710;27.258;2024-01-15T04:06:11;99690.44;;;-5.03;100.00
12349;BME280;5974;42.710;27.258;2024-01-15T04:08:38;99694.63;;;-5.07;100.00
12349;BME280;5974;42.710;27.258;2024-01-15T04:11:04;99688.44;;;-5.24;100.00
12349;BME280;5974;42.710;27.258;2024-01-15T04:13:32;99699.97;;;-4.88;100.00
12349;BME280;5974;42.710;27.258;2024-01-15T04:16:00;99697.50;;;-4.84;100.00
12349;BME280;5974;42.710;27.258;2024-01-15T04:18:26;99691.16;;;-5.12;100.00
12349;BME280;5974;42.710;27.258;2024-01-15T04:20:53;99670.97;;;-5.00;100.00
12349;BME280;5974;42.710;27.258;2024-01-15T04:23:21;99707.91;;;-4.67;100.00
12349;BME280;5974;42.710;27.258;2024-01-15T04:25:48;99713.84;;;-4.71;100.00
12349;BME280;5974;42.710;27.258;2024-01-15T04:28:15;99708.63;;;-4.79;100.00
12349;BME280;5974;42.710;27.258;2024-01-15T04:30:42;99700.84;;;-4.89;100.00
12349;BME280;5974;42.710;27.258;2024-01-15T04:33:08;99698.59;;;-4.68;100.00
12349;BME280;5974;42.710;27.258;2024-01-15T04:35:35;99702.78;;;-4.70;100.00
12349;BME280;5974;42.710;27.258;2024-01-15T04:38:02;99707.59;;;-4.92;100.00
12349;BME280;5974;42.710;27.258;2024-01-15T04:40:30;99705.38;;;-4.69;100.00
12349;BME280;5974;42.710;27.258;2024-01-15T04:42:56;99701.91;;;-5.82;100.00
12349;BME280;5974;42.710;27.258;2024-01-15T04:45:23;99700.94;;;-6.35;100.00
12349;BME280;5974;42.710;27.258;2024-01-15T04:47:53;99701.78;;;-6.34;100.00
12349;BME280;5974;42.710;27.258;2024-01-15T04:50:21;99697.63;;;-5.83;100.00
12349;BME280;5974;42.710;27.258;2024-01-15T04:52:47;99702.41;;;-5.52;100.00
12349;BME280;5974;42.710;27.258;2024-01-15T04:55:14;99699.97;;;-5.44;100.00
12349;BME280;5974;42.710;27.258;2024-01-15T04:57:42;99703.56;;;-5.33;100.00
12349;BME280;5974;42.710;27.258;2024-01-15T05:00:10;99701.13;;;-5.27;100.00
12349;BME280;5974;42.710;27.258;2024-01-15T05:02:37;99701.31;;;-5.15;100.00
12349;BME280;5974;42.710;27.258;2024-01-15T05:05:04;99705.91;;;-4.91;100.00
12349;BME280;5974;42.710;27.258;2024-01-15T05:07:31;99710.03;;;-4.98;100.00
12349;BME280;5974;42.710;27.258;2024-01-15T05:09:58;99704.50;;;-5.77;100.00
12349;BME280;5974;42.710;27.258;2024-01-15T05:12:24;99711.16;;;-5.36;100.00
12349;BME280;5974;42.710;27.258;2024-01-15T05:14:52;99707.38;;;-5.07;100.00
12349;BME280;5974;42.710;27.258;2024-01-15T05:17:19;99703.25;;;-4.99;100.00
12349;BME280;5974;42.710;27.258;2024-01-15T05:19:46;99696.41;;;-5.01;100.00
12349;BME280;5974;42.710;27.258;2024-01-15T05:22:12;99696.31;;;-5.09;100.00
12349;BME280;5974;42.710;27.258;2024-01-15T05:24:39;99690.38;;;-5.08;100.00
12349;BME280;5974;42.710;27.258;2024-01-15T05:27:06;99691.34;;;-4.98;100.00
12349;BME280;5974;42.710;27.258;2024-01-15T05:29:33;99701.88;;;-4.77;100.00
12349;BME280;5974;42.710;27.258;2024-01-15T05:32:01;99693.91;;;-5.00;100.00
12349;BME280;5974;42.710;27.258;2024-01-15T05:34:27;99656.44;;;-5.04;100.00
12349;BME280;5974;42.710;27.258;2024-01-15T05:36:53;99710.66;;;-5.66;100.00
12349;BME280;5974;42.710;27.258;2024-01-15T05:39:20;99707.47;;;-5.55;100.00
12349;BME280;5974;42.710;27.258;2024-01-15T05:41:47;99710.94;;;-4.96;100.00
12349;BME280;5974;42.710;27.258;2024-01-15T05:44:13;99712.81;;;-4.82;100.00
12349;BME280;5974;42.710;27.258;2024-01-15T05:46:40;99708.94;;;-4.56;100.00
12349;BME280;5974;42.710;27.258;2024-01-15T05:49:08;99703.97;;;-4.46;100.00
12349;BME280;5974;42.710;27.258;2024-01-15T05:51:35;99706.53;;;-4.43;100.00
12349;BME280;5974;42.710;27.258;2024-01-15T05:54:02;99700.50;;;-4.52;100.00
12349;BME280;5974;42.710;27.258;2024-01-15T05:56:29;99706.63;;;-4.38;100.00
12349;BME280;5974;42.710;27.258;2024-01-15T05:58:55;99702.59;;;-4.19;100.00
12349;BME280;5974;42.710;27.258;2024-01-15T06:01:22;99693.16;;;-4.26;100.00
12349;BME280;5974;42.710;27.258;2024-01-15T06:03:49;99690.34;;;-4.48;100.00
12349;BME280;5974;42.710;27.258;2024-01-15T06:06:17;99692.97;;;-4.42;100.00
12349;BME280;5974;42.710;27.258;2024-01-15T06:08:44;99689.25;;;-4.66;100.00
12349;BME280;5974;42.710;27.258;2024-01-15T06:11:10;99686.69;;;-4.66;100.00
12349;BME280;5974;42.710;27.258;2024-01-15T06:13:37;99681.59;;;-4.68;100.00
12349;BME280;5974;42.710;27.258;2024-01-15T06:16:13;99685.06;;;-4.61;100.00
12349;BME280;5974;42.710;27.258;2024-01-15T06:18:38;99682.09;;;-4.92;100.00
12349;BME280;5974;42.710;27.258;2024-01-15T06:21:05;99678.25;;;-4.62;100.00
12349;BME280;5974;42.710;27.258;2024-01-15T06:23:33;99670.38;;;-4.10;100.00
12349;BME280;5974;42.710;27.258;2024-01-15T06:26:00;99673.53;;;-3.48;100.00
12349;BME280;5974;42.710;27.258;2024-01-15T06:28:29;99668.31;;;-2.00;100.00
12349;BME280;5974;42.710;27.258;2024-01-15T06:30:56;99672.69;;;-1.55;100.00
12349;BME280;5974;42.710;27.258;2024-01-15T06:33:23;99663.25;;;-1.20;100.00
12349;BME280;5974;42.710;27.258;2024-01-15T06:35:50;99668.09;;;-0.18;100.00
12349;BME280;5974;42.710;27.258;2024-01-15T06:38:17;99654.66;;;0.73;100.00
12349;BME280;5974;42.710;27.258;2024-01-15T06:40:45;99652.69;;;-0.18;100.00
12349;BME280;5974;42.710;27.258;2024-01-15T06:43:14;99664.78;;;-0.41;100.00
12349;BME280;5974;42.710;27.258;2024-01-15T06:45:41;99661.44;;;0.83;100.00
12349;BME280;5974;42.710;27.258;2024-01-15T06:48:08;99640.84;;;1.60;100.00
12349;BME280;5974;42.710;27.258;2024-01-15T06:50:34;99646.03;;;1.57;100.00
12349;BME280;5974;42.710;27.258;2024-01-15T06:53:01;99654.34;;;1.79;100.00
12349;BME280;5974;42.710;27.258;2024-01-15T06:55:28;99644.41;;;1.52;100.00
12349;BME280;5974;42.710;27.258;2024-01-15T06:57:56;99631.41;;;2.24;100.00
12349;BME280;5974;42.710;27.258;2024-01-15T07:00:23;99626.28;;;2.76;100.00
12349;BME280;5974;42.710;27.258;2024-01-15T07:02:49;99634.63;;;2.90;100.00
12349;BME280;5974;42.710;27.258;2024-01-15T07:05:17;99628.75;;;2.28;100.00
12349;BME280;5974;42.710;27.258;2024-01-15T07:07:44;99628.38;;;1.94;100.00
12349;BME280;5974;42.710;27.258;2024-01-15T07:10:10;99638.09;;;1.76;100.00
12349;BME280;5974;42.710;27.258;2024-01-15T07:12:37;99639.09;;;2.27;100.00
12349;BME280;5974;42.710;27.258;2024-01-15T07:15:06;99650.88;;;1.10;100.00
12349;BME280;5974;42.710;27.258;2024-01-15T07:17:33;99662.78;;;1.19;100.00
12349;BME280;5974;42.710;27.258;2024-01-15T07:20:00;99668.72;;;1.28;100.00
12349;BME280;5974;42.710;27.258;2024-01-15T07:22:27;99665.00;;;0.65;100.00
12349;BME280;5974;42.710;27.258;2024-01-15T07:24:53;99670.53;;;0.12;100.00
12349;BME280;5974;42.710;27.258;2024-01-15T07:27:20;99671.69;;;0.89;100.00
12349;BME280;5974;42.710;27.258;2024-01-15T07:29:47;99679.88;;;1.97;100.00
12349;BME280;5974;42.710;27.258;2024-01-15T07:32:15;99674.94;;;2.43;100.00
12349;BME280;5974;42.710;27.258;2024-01-15T07:34:42;99673.28;;;2.93;100.00
12349;BME280;5974;42.710;27.258;2024-01-15T07:37:09;99666.25;;;4.29;100.00
12349;BME280;5974;42.710;27.258;2024-01-15T07:39:36;99667.22;;;5.62;97.50
12349;BME280;5974;42.710;27.258;2024-01-15T07:42:03;99666.41;;;4.22;94.10
12349;BME280;5974;42.710;27.258;2024-01-15T07:44:30;99665.69;;;3.75;96.90
12349;BME280;5974;42.710;27.258;2024-01-15T07:46:57;99662.69;;;3.97;96.30
12349;BME280;5974;42.710;27.258;2024-01-15T07:49:25;99655.19;;;4.23;95.49
12349;BME280;5974;42.710;27.258;2024-01-15T07:51:52;99646.00;;;4.47;92.32
12349;BME280;5974;42.710;27.258;2024-01-15T07:54:18;99641.75;;;4.46;92.17
12349;BME280;5974;42.710;27.258;2024-01-15T07:56:55;99632.13;;;4.51;90.76
12349;BME280;5974;42.710;27.258;2024-01-15T07:59:22;99629.31;;;4.60;91.05
12349;BME280;5974;42.710;27.258;2024-01-15T08:01:49;99617.94;;;4.65;91.03
12349;BME280;5974;42.710;27.258;2024-01-15T08:04:16;99615.34;;;4.67;92.38
12349;BME280;5974;42.710;27.258;2024-01-15T08:06:44;99614.19;;;4.43;94.80
12349;BME280;5974;42.710;27.258;2024-01-15T08:09:10;99611.31;;;4.18;99.52
12349;BME280;5974;42.710;27.258;2024-01-15T08:11:39;99610.19;;;3.92;100.00
12349;BME280;5974;42.710;27.258;2024-01-15T08:14:06;99609.06;;;4.40;100.00
12349;BME280;5974;42.710;27.258;2024-01-15T08:16:33;99599.97;;;4.59;100.00
12349;BME280;5974;42.710;27.258;2024-01-15T08:19:00;99609.78;;;4.80;100.00
12349;BME280;5974;42.710;27.258;2024-01-15T08:21:27;99607.41;;;5.05;97.30
12349;BME280;5974;42.710;27.258;2024-01-15T08:23:56;99624.13;;;4.60;98.83
12349;BME280;5974;42.710;27.258;2024-01-15T08:26:23;99620.06;;;4.83;100.00
12349;BME280;5974;42.710;27.258;2024-01-15T08:28:50;99625.66;;;5.33;97.07
12349;BME280;5974;42.710;27.258;2024-01-15T08:31:17;99626.25;;;5.44;94.10
12349;BME280;5974;42.710;27.258;2024-01-15T08:33:44;99621.63;;;4.90;94.06
12349;BME280;5974;42.710;27.258;2024-01-15T08:36:11;99609.72;;;4.83;95.22
12349;BME280;5974;42.710;27.258;2024-01-15T08:38:38;99618.22;;;5.21;95.70
12349;BME280;5974;42.710;27.258;2024-01-15T08:41:06;99609.25;;;5.32;96.05
12349;BME280;5974;42.710;27.258;2024-01-15T08:43:33;99609.31;;;4.66;96.51
12349;BME280;5974;42.710;27.258;2024-01-15T08:46:00;99594.72;;;4.62;98.46
12349;BME280;5974;42.710;27.258;2024-01-15T08:48:27;99588.69;;;4.96;98.66
12349;BME280;5974;42.710;27.258;2024-01-15T08:50:54;99575.81;;;4.25;98.28
12349;BME280;5974;42.710;27.258;2024-01-15T08:53:22;99585.00;;;4.72;98.64
12349;BME280;5974;42.710;27.258;2024-01-15T08:55:49;99589.22;;;5.08;98.42
12349;BME280;5974;42.710;27.258;2024-01-15T08:58:17;99593.69;;;5.34;93.94
12349;BME280;5974;42.710;27.258;2024-01-15T09:00:44;99576.06;;;5.45;95.79
12349;BME280;5974;42.710;27.258;2024-01-15T09:03:11;99569.75;;;5.55;96.34
12349;BME280;5974;42.710;27.258;2024-01-15T09:05:37;99568.72;;;5.61;95.86
12349;BME280;5974;42.710;27.258;2024-01-15T09:08:06;99560.19;;;5.85;93.72
12349;BME280;5974;42.710;27.258;2024-01-15T09:10:33;99555.91;;;5.85;93.42
12349;BME280;5974;42.710;27.258;2024-01-15T09:12:59;99555.84;;;6.67;92.59
12349;BME280;5974;42.710;27.258;2024-01-15T09:15:27;99560.28;;;6.11;90.64
12349;BME280;5974;42.710;27.258;2024-01-15T09:17:54;99562.69;;;6.94;92.00
12349;BME280;5974;42.710;27.258;2024-01-15T09:20:22;99565.97;;;6.75;88.98
12349;BME280;5974;42.710;27.258;2024-01-15T09:22:51;99554.63;;;6.77;89.53
12349;BME280;5974;42.710;27.258;2024-01-15T09:25:18;99545.88;;;6.03;90.00
12349;BME280;5974;42.710;27.258;2024-01-15T09:27:44;99533.47;;;5.83;91.14
12349;BME280;5974;42.710;27.258;2024-01-15T09:30:12;99532.03;;;6.02;91.27
12349;BME280;5974;42.710;27.258;2024-01-15T09:32:40;99523.00;;;6.40;90.58
12349;BME280;5974;42.710;27.258;2024-01-15T09:35:07;99522.34;;;6.07;90.01
12349;BME280;5974;42.710;27.258;2024-01-15T09:37:34;99519.91;;;6.29;90.98
12349;BME280;5974;42.710;27.258;2024-01-15T09:40:03;99511.47;;;5.96;91.76
12349;BME280;5974;42.710;27.258;2024-01-15T09:42:30;99506.69;;;6.36;92.86
12349;BME280;5974;42.710;27.258;2024-01-15T09:44:57;99504.00;;;6.89;89.69
12349;BME280;5974;42.710;27.258;2024-01-15T09:47:24;99493.63;;;6.64;87.99
12349;BME280;5974;42.710;27.258;2024-01-15T09:49:52;99493.66;;;6.38;88.88
12349;BME280;5974;42.710;27.258;2024-01-15T09:52:19;99480.66;;;5.87;91.08
12349;BME280;5974;42.710;27.258;2024-01-15T09:54:47;99471.50;;;6.02;94.01
12349;BME280;5974;42.710;27.258;2024-01-15T09:57:15;99471.16;;;5.86;95.23
12349;BME280;5974;42.710;27.258;2024-01-15T09:59:43;99462.91;;;6.26;96.10
12349;BME280;5974;42.710;27.258;2024-01-15T10:02:13;99459.25;;;6.31;94.99
12349;BME280;5974;42.710;27.258;2024-01-15T10:04:44;99463.00;;;6.49;94.10
12349;BME280;5974;42.710;27.258;2024-01-15T10:07:15;99458.16;;;6.63;94.54
12349;BME280;5974;42.710;27.258;2024-01-15T10:09:42;99455.09;;;6.52;93.50
12349;BME280;5974;42.710;27.258;2024-01-15T10:12:10;99452.19;;;6.36;96.66
12349;BME280;5974;42.710;27.258;2024-01-15T10:14:37;99456.13;;;6.22;97.49
12349;BME280;5974;42.710;27.258;2024-01-15T10:17:12;99447.38;;;5.99;99.66
12349;BME280;5974;42.710;27.258;2024-01-15T10:19:39;99445.13;;;5.89;100.00
12349;BME280;5974;42.710;27.258;2024-01-15T10:22:07;99443.03;;;6.49;100.00
12349;BME280;5974;42.710;27.258;2024-01-15T10:24:36;99444.22;;;6.41;100.00
12349;BME280;5974;42.710;27.258;2024-01-15T10:27:07;99435.75;;;6.61;100.00
12349;BME280;5974;42.710;27.258;2024-01-15T10:29:34;99438.03;;;6.45;97.58
12349;BME280;5974;42.710;27.258;2024-01-15T10:32:02;99432.75;;;6.71;98.63
12349;BME280;5974;42.710;27.258;2024-01-15T10:34:30;99423.56;;;6.86;98.54
12349;BME280;5974;42.710;27.258;2024-01-15T10:36:57;99412.88;;;7.38;97.89
12349;BME280;5974;42.710;27.258;2024-01-15T10:39:24;99418.28;;;7.34;96.47
12349;BME280;5974;42.710;27.258;2024-01-15T10:41:51;99405.50;;;7.28;96.10
12349;BME280;5974;42.710;27.258;2024-01-15T10:44:18;99403.94;;;7.24;95.96
12349;BME280;5974;42.710;27.258;2024-01-15T10:46:45;99378.72;;;7.04;97.53
12349;BME280;5974;42.710;27.258;2024-01-15T10:49:12;99385.38;;;7.54;98.73
12349;BME280;5974;42.710;27.258;2024-01-15T10:51:39;99385.66;;;8.10;95.34
12349;BME280;5974;42.710;27.258;2024-01-15T10:54:09;99374.38;;;8.10;94.49
12349;BME280;5974;42.710;27.258;2024-01-15T10:56:37;99379.84;;;7.84;93.05
12349;BME280;5974;42.710;27.258;2024-01-15T10:59:06;99387.31;;;7.71;94.35
12349;BME280;5974;42.710;27.258;2024-01-15T11:01:36;99381.34;;;8.09;91.54
12349;BME280;5974;42.710;27.258;2024-01-15T11:04:03;99369.13;;;8.70;87.65
12349;BME280;5974;42.710;27.258;2024-01-15T11:06:42;99366.13;;;8.41;89.42
12349;BME280;5974;42.710;27.258;2024-01-15T11:09:09;99369.13;;;8.32;88.18
12349;BME280;5974;42.710;27.258;2024-01-15T11:11:40;99366.31;;;7.54;89.57
12349;BME280;5974;42.710;27.258;2024-01-15T11:14:08;99352.75;;;7.88;91.21
12349;BME280;5974;42.710;27.258;2024-01-15T11:17:02;99346.41;;;8.15;89.97
12349;BME280;5974;42.710;27.258;2024-01-15T11:19:36;99344.38;;;8.42;88.43
12349;BME280;5974;42.710;27.258;2024-01-15T11:22:03;99351.09;;;8.27;90.67
12349;BME280;5974;42.710;27.258;2024-01-15T11:24:36;99338.13;;;8.46;91.26
12349;BME280;5974;42.710;27.258;2024-01-15T11:27:03;99335.28;;;7.91;91.92
12349;BME280;5974;42.710;27.258;2024-01-15T11:29:33;99330.59;;;7.99;92.84
12349;BME280;5974;42.710;27.258;2024-01-15T11:32:01;99331.75;;;7.92;93.27
12349;BME280;5974;42.710;27.258;2024-01-15T11:34:52;99329.47;;;7.64;96.27
12349;BME280;5974;42.710;27.258;2024-01-15T11:37:20;99325.00;;;7.68;98.42
12349;BME280;5974;42.710;27.258;2024-01-15T11:39:51;99319.22;;;7.40;98.69
12349;BME280;5974;42.710;27.258;2024-01-15T11:42:19;99322.38;;;7.88;98.04
12349;BME280;5974;42.710;27.258;2024-01-15T11:44:48;99325.59;;;8.15;95.79
12349;BME280;5974;42.710;27.258;2024-01-15T11:47:15;99321.47;;;8.09;96.26
12349;BME280;5974;42.710;27.258;2024-01-15T11:50:03;99320.28;;;8.16;94.70
12349;BME280;5974;42.710;27.258;2024-01-15T11:52:35;99318.25;;;8.43;94.36
12349;BME280;5974;42.710;27.258;2024-01-15T11:55:10;99320.59;;;8.68;93.96
12349;BME280;5974;42.710;27.258;2024-01-15T11:57:41;99312.34;;;8.19;92.95
12349;BME280;5974;42.710;27.258;2024-01-15T12:00:12;99305.78;;;8.31;92.36
12349;BME280;5974;42.710;27.258;2024-01-15T12:02:40;99299.81;;;8.09;91.48
12349;BME280;5974;42.710;27.258;2024-01-15T12:05:08;99307.06;;;8.02;94.67
12349;BME280;5974;42.710;27.258;2024-01-15T12:07:35;99297.22;;;7.89;94.39
12349;BME280;5974;42.710;27.258;2024-01-15T12:10:02;99302.28;;;7.92;95.50
12349;BME280;5974;42.710;27.258;2024-01-15T12:12:37;99288.22;;;7.76;96.24
12349;BME280;5974;42.710;27.258;2024-01-15T12:15:07;99285.63;;;7.96;97.69
12349;BME280;5974;42.710;27.258;2024-01-15T12:17:36;99284.94;;;7.92;97.08
12349;BME280;5974;42.710;27.258;2024-01-15T12:20:03;99286.72;;;8.31;95.19
12349;BME280;5974;42.710;27.258;2024-01-15T12:22:30;99284.25;;;8.07;95.93
12349;BME280;5974;42.710;27.258;2024-01-15T12:24:56;99282.72;;;7.83;95.85
12349;BME280;5974;42.710;27.258;2024-01-15T12:27:24;99269.91;;;8.38;95.08
12349;BME280;5974;42.710;27.258;2024-01-15T12:29:53;99276.94;;;8.92;92.46
12349;BME280;5974;42.710;27.258;2024-01-15T12:32:19;99278.38;;;8.43;91.59
12349;BME280;5974;42.710;27.258;2024-01-15T12:34:48;99279.69;;;8.33;94.33
12349;BME280;5974;42.710;27.258;2024-01-15T12:37:18;99275.25;;;8.35;93.93
12349;BME280;5974;42.710;27.258;2024-01-15T12:39:45;99268.19;;;7.98;94.97
12349;BME280;5974;42.710;27.258;2024-01-15T12:42:13;99284.56;;;7.81;95.75
12349;BME280;5974;42.710;27.258;2024-01-15T12:44:40;99269.75;;;7.82;98.32
12349;BME280;5974;42.710;27.258;2024-01-15T12:47:07;99268.78;;;8.04;97.27
12349;BME280;5974;42.710;27.258;2024-01-15T12:49:36;99270.03;;;7.55;98.83
12349;BME280;5974;42.710;27.258;2024-01-15T12:52:04;99289.38;;;7.90;97.45
12349;BME280;5974;42.710;27.258;2024-01-15T12:54:31;99277.28;;;8.08;96.00
12349;BME280;5974;42.710;27.258;2024-01-15T12:56:57;99283.16;;;7.73;99.57
12349;BME280;5974;42.710;27.258;2024-01-15T12:59:24;99277.50;;;7.83;99.84
12349;BME280;5974;42.710;27.258;2024-01-15T13:01:51;99261.94;;;7.82;100.00